Flugplatz Bad Neuenahr-Ahrweiler

Für EDRA sind keine METAR/TAF Berichte vorhanden.
Es werden die Flugwettermeldungen vom Flugplatz Cologne Bonn in 34 km Entfernung angezeigt.

Bericht für EDDK

vom 07.08. um 17:50 UTC

Wind 3 kt aus 70°

Sichtweite 10 km oder mehr

gute Sicht, keine Wolken < 5000 ft, keine CB, keine Wettererscheinungen (CAVOK)

Temperatur 35.0°C

Taupunkt 10.0°C

Luftfeuchtigkeit 22%

Luftdruck 1018 hPa

keine wesentliche Wetteränderung innerhalb den nächsten 2 Stunden zu erwarten

EDDK 071750Z 07003KT 050V130 CAVOK 35/10 Q1018 NOSIG

Prognose für EDDK

vom 07.08. um 17:00 UTC

Zwischen 18:00 UTC und 10:00 UTC

variable Windrichtung mit 3 kt

Sichtweite 10 km oder mehr

keine signifikanten Wettererscheinungen

keine Wolken


Am 08.08. zwischen 10:00 und 13:00 UTC übergehend zu

Wind 6 kt aus 350°

Sichtweite 10 km oder mehr

keine signifikanten Wettererscheinungen

keine Wolken


Am 08.08. zwischen 18:00 und 20:00 UTC übergehend zu

Wind 5 kt aus 50°

Sichtweite 10 km oder mehr

keine signifikanten Wettererscheinungen

keine Wolken

TAF EDDK 071700Z 0718/0824 VRB03KT CAVOK BECMG 0810/0813 35006KT BECMG 0818/0820 05005KT
Impressum